sensor_id;sensor_type;location;lat;lon;timestamp;P1;durP1;ratioP1;P2;durP2;ratioP2
1847;SDS011;924;52.448;13.356;2022-10-16T00:01:27;3.50;;;3.20;;
1847;SDS011;924;52.448;13.356;2022-10-16T00:03:53;3.50;;;2.90;;
1847;SDS011;924;52.448;13.356;2022-10-16T00:06:19;3.00;;;2.70;;
1847;SDS011;924;52.448;13.356;2022-10-16T00:08:44;2.73;;;2.53;;
1847;SDS011;924;52.448;13.356;2022-10-16T00:13:35;3.53;;;2.80;;
1847;SDS011;924;52.448;13.356;2022-10-16T00:16:01;2.50;;;2.27;;
1847;SDS011;924;52.448;13.356;2022-10-16T00:18:27;4.10;;;2.97;;
1847;SDS011;924;52.448;13.356;2022-10-16T00:20:53;2.87;;;2.67;;
1847;SDS011;924;52.448;13.356;2022-10-16T00:23:19;3.40;;;2.47;;
1847;SDS011;924;52.448;13.356;2022-10-16T00:25:44;2.40;;;2.20;;
1847;SDS011;924;52.448;13.356;2022-10-16T00:28:10;2.50;;;2.30;;
1847;SDS011;924;52.448;13.356;2022-10-16T00:30:38;2.33;;;2.13;;
1847;SDS011;924;52.448;13.356;2022-10-16T00:33:04;2.83;;;2.50;;
1847;SDS011;924;52.448;13.356;2022-10-16T00:35:30;2.47;;;2.30;;
1847;SDS011;924;52.448;13.356;2022-10-16T00:37:55;2.33;;;2.13;;
1847;SDS011;924;52.448;13.356;2022-10-16T00:40:20;2.93;;;2.73;;
1847;SDS011;924;52.448;13.356;2022-10-16T00:42:46;4.10;;;2.50;;
1847;SDS011;924;52.448;13.356;2022-10-16T00:45:11;2.43;;;2.23;;
1847;SDS011;924;52.448;13.356;2022-10-16T00:47:37;2.37;;;2.17;;
1847;SDS011;924;52.448;13.356;2022-10-16T00:52:39;2.70;;;2.10;;
1847;SDS011;924;52.448;13.356;2022-10-16T00:55:06;2.93;;;2.60;;
1847;SDS011;924;52.448;13.356;2022-10-16T00:57:33;2.60;;;2.40;;
1847;SDS011;924;52.448;13.356;2022-10-16T00:59:58;4.57;;;2.30;;
1847;SDS011;924;52.448;13.356;2022-10-16T01:02:23;2.53;;;2.33;;
1847;SDS011;924;52.448;13.356;2022-10-16T01:04:50;2.07;;;1.80;;
1847;SDS011;924;52.448;13.356;2022-10-16T01:07:26;2.53;;;2.33;;
1847;SDS011;924;52.448;13.356;2022-10-16T01:12:45;2.50;;;1.80;;
1847;SDS011;924;52.448;13.356;2022-10-16T01:20:33;4.13;;;2.37;;
1847;SDS011;924;52.448;13.356;2022-10-16T01:28:15;2.50;;;2.30;;
1847;SDS011;924;52.448;13.356;2022-10-16T01:30:41;3.63;;;2.53;;
1847;SDS011;924;52.448;13.356;2022-10-16T01:33:10;3.20;;;2.20;;
1847;SDS011;924;52.448;13.356;2022-10-16T01:35:41;3.27;;;2.97;;
1847;SDS011;924;52.448;13.356;2022-10-16T01:38:08;2.50;;;2.27;;
1847;SDS011;924;52.448;13.356;2022-10-16T01:40:36;2.20;;;2.03;;
1847;SDS011;924;52.448;13.356;2022-10-16T01:43:03;2.83;;;2.17;;
1847;SDS011;924;52.448;13.356;2022-10-16T01:45:29;2.60;;;2.40;;
1847;SDS011;924;52.448;13.356;2022-10-16T01:47:56;2.47;;;2.27;;
1847;SDS011;924;52.448;13.356;2022-10-16T01:50:23;2.17;;;1.97;;
1847;SDS011;924;52.448;13.356;2022-10-16T01:52:49;1.90;;;1.80;;
1847;SDS011;924;52.448;13.356;2022-10-16T01:55:17;2.57;;;2.37;;
1847;SDS011;924;52.448;13.356;2022-10-16T01:57:45;2.50;;;2.30;;
1847;SDS011;924;52.448;13.356;2022-10-16T02:00:11;2.13;;;1.93;;
1847;SDS011;924;52.448;13.356;2022-10-16T02:02:37;2.40;;;2.20;;
1847;SDS011;924;52.448;13.356;2022-10-16T02:05:04;2.40;;;2.20;;
1847;SDS011;924;52.448;13.356;2022-10-16T02:07:33;2.60;;;2.40;;
1847;SDS011;924;52.448;13.356;2022-10-16T02:09:59;3.13;;;2.10;;
1847;SDS011;924;52.448;13.356;2022-10-16T02:12:28;2.57;;;2.37;;
1847;SDS011;924;52.448;13.356;2022-10-16T02:14:55;2.93;;;2.10;;
1847;SDS011;924;52.448;13.356;2022-10-16T02:17:20;2.20;;;2.10;;
1847;SDS011;924;52.448;13.356;2022-10-16T02:19:46;3.80;;;3.50;;
1847;SDS011;924;52.448;13.356;2022-10-16T02:22:17;2.30;;;2.10;;
1847;SDS011;924;52.448;13.356;2022-10-16T02:24:47;2.50;;;2.30;;
1847;SDS011;924;52.448;13.356;2022-10-16T02:27:19;4.30;;;2.00;;
1847;SDS011;924;52.448;13.356;2022-10-16T02:29:47;2.37;;;2.10;;
1847;SDS011;924;52.448;13.356;2022-10-16T02:32:20;3.03;;;2.33;;
1847;SDS011;924;52.448;13.356;2022-10-16T02:34:48;2.47;;;2.27;;
1847;SDS011;924;52.448;13.356;2022-10-16T02:37:14;2.90;;;2.20;;
1847;SDS011;924;52.448;13.356;2022-10-16T02:39:39;2.70;;;2.20;;
1847;SDS011;924;52.448;13.356;2022-10-16T02:42:09;2.67;;;2.47;;
1847;SDS011;924;52.448;13.356;2022-10-16T02:44:34;2.90;;;2.17;;
1847;SDS011;924;52.448;13.356;2022-10-16T02:46:59;2.30;;;2.10;;
1847;SDS011;924;52.448;13.356;2022-10-16T02:49:25;3.40;;;1.83;;
1847;SDS011;924;52.448;13.356;2022-10-16T02:51:50;2.33;;;2.13;;
1847;SDS011;924;52.448;13.356;2022-10-16T02:54:15;2.37;;;2.17;;
1847;SDS011;924;52.448;13.356;2022-10-16T02:56:40;2.53;;;2.33;;
1847;SDS011;924;52.448;13.356;2022-10-16T02:59:05;2.00;;;1.90;;
1847;SDS011;924;52.448;13.356;2022-10-16T03:01:31;1.90;;;1.80;;
1847;SDS011;924;52.448;13.356;2022-10-16T03:03:56;2.80;;;2.47;;
1847;SDS011;924;52.448;13.356;2022-10-16T03:06:21;2.20;;;2.00;;
1847;SDS011;924;52.448;13.356;2022-10-16T03:08:46;2.50;;;2.30;;
1847;SDS011;924;52.448;13.356;2022-10-16T03:11:11;3.70;;;2.33;;
1847;SDS011;924;52.448;13.356;2022-10-16T03:13:37;1.83;;;1.63;;
1847;SDS011;924;52.448;13.356;2022-10-16T03:16:02;2.30;;;2.07;;
1847;SDS011;924;52.448;13.356;2022-10-16T03:18:27;2.60;;;2.20;;
1847;SDS011;924;52.448;13.356;2022-10-16T03:20:52;2.50;;;2.30;;
1847;SDS011;924;52.448;13.356;2022-10-16T03:23:17;3.30;;;2.00;;
1847;SDS011;924;52.448;13.356;2022-10-16T03:25:43;2.13;;;2.00;;
1847;SDS011;924;52.448;13.356;2022-10-16T03:28:08;2.57;;;2.37;;
1847;SDS011;924;52.448;13.356;2022-10-16T03:30:34;2.43;;;1.97;;
1847;SDS011;924;52.448;13.356;2022-10-16T03:32:59;2.30;;;2.10;;
1847;SDS011;924;52.448;13.356;2022-10-16T03:35:24;3.00;;;2.70;;
1847;SDS011;924;52.448;13.356;2022-10-16T03:37:50;2.37;;;2.17;;
1847;SDS011;924;52.448;13.356;2022-10-16T03:40:15;2.30;;;2.10;;
1847;SDS011;924;52.448;13.356;2022-10-16T03:42:41;2.37;;;2.17;;
1847;SDS011;924;52.448;13.356;2022-10-16T03:45:07;2.53;;;2.27;;
1847;SDS011;924;52.448;13.356;2022-10-16T03:47:32;2.40;;;2.20;;
1847;SDS011;924;52.448;13.356;2022-10-16T03:49:58;3.23;;;2.93;;
1847;SDS011;924;52.448;13.356;2022-10-16T03:52:23;2.70;;;2.50;;
1847;SDS011;924;52.448;13.356;2022-10-16T03:54:49;3.27;;;2.97;;
1847;SDS011;924;52.448;13.356;2022-10-16T03:57:14;2.40;;;2.20;;
1847;SDS011;924;52.448;13.356;2022-10-16T03:59:39;3.70;;;2.50;;
1847;SDS011;924;52.448;13.356;2022-10-16T04:02:04;2.57;;;2.37;;
1847;SDS011;924;52.448;13.356;2022-10-16T04:04:29;4.10;;;2.10;;
1847;SDS011;924;52.448;13.356;2022-10-16T04:06:55;2.67;;;2.47;;
1847;SDS011;924;52.448;13.356;2022-10-16T04:09:20;2.80;;;2.47;;
1847;SDS011;924;52.448;13.356;2022-10-16T04:11:45;2.57;;;2.10;;
1847;SDS011;924;52.448;13.356;2022-10-16T04:14:10;2.53;;;2.33;;
1847;SDS011;924;52.448;13.356;2022-10-16T04:16:35;2.40;;;2.20;;
1847;SDS011;924;52.448;13.356;2022-10-16T04:19:01;2.60;;;2.40;;
1847;SDS011;924;52.448;13.356;2022-10-16T04:21:26;2.50;;;2.30;;
1847;SDS011;924;52.448;13.356;2022-10-16T04:23:51;2.80;;;2.07;;
1847;SDS011;924;52.448;13.356;2022-10-16T04:26:16;2.27;;;2.07;;
1847;SDS011;924;52.448;13.356;2022-10-16T04:28:42;2.60;;;2.40;;
1847;SDS011;924;52.448;13.356;2022-10-16T04:31:07;2.53;;;2.33;;
1847;SDS011;924;52.448;13.356;2022-10-16T04:33:33;2.80;;;2.60;;
1847;SDS011;924;52.448;13.356;2022-10-16T04:35:58;2.40;;;2.20;;
1847;SDS011;924;52.448;13.356;2022-10-16T04:38:24;3.10;;;1.97;;
1847;SDS011;924;52.448;13.356;2022-10-16T04:40:49;3.23;;;2.30;;
1847;SDS011;924;52.448;13.356;2022-10-16T04:43:15;3.20;;;2.23;;
1847;SDS011;924;52.448;13.356;2022-10-16T04:45:40;2.57;;;2.27;;
1847;SDS011;924;52.448;13.356;2022-10-16T04:48:05;2.90;;;2.37;;
1847;SDS011;924;52.448;13.356;2022-10-16T04:50:30;2.50;;;2.20;;
1847;SDS011;924;52.448;13.356;2022-10-16T04:52:56;2.33;;;2.13;;
1847;SDS011;924;52.448;13.356;2022-10-16T04:55:21;2.40;;;2.20;;
1847;SDS011;924;52.448;13.356;2022-10-16T04:57:46;2.83;;;2.57;;
1847;SDS011;924;52.448;13.356;2022-10-16T05:00:11;3.33;;;2.70;;
1847;SDS011;924;52.448;13.356;2022-10-16T05:02:37;2.77;;;2.33;;
1847;SDS011;924;52.448;13.356;2022-10-16T05:05:02;3.33;;;3.00;;
1847;SDS011;924;52.448;13.356;2022-10-16T05:07:28;2.93;;;2.40;;
1847;SDS011;924;52.448;13.356;2022-10-16T05:09:53;2.50;;;2.30;;
1847;SDS011;924;52.448;13.356;2022-10-16T05:12:18;3.77;;;3.23;;
1847;SDS011;924;52.448;13.356;2022-10-16T05:14:44;5.20;;;2.70;;
1847;SDS011;924;52.448;13.356;2022-10-16T05:17:09;2.30;;;2.10;;
1847;SDS011;924;52.448;13.356;2022-10-16T05:19:34;3.27;;;3.00;;
1847;SDS011;924;52.448;13.356;2022-10-16T05:21:59;3.30;;;2.97;;
1847;SDS011;924;52.448;13.356;2022-10-16T05:24:24;3.80;;;3.50;;
1847;SDS011;924;52.448;13.356;2022-10-16T05:26:50;2.37;;;2.17;;
1847;SDS011;924;52.448;13.356;2022-10-16T05:29:15;6.23;;;2.93;;
1847;SDS011;924;52.448;13.356;2022-10-16T05:31:40;3.10;;;2.90;;
1847;SDS011;924;52.448;13.356;2022-10-16T05:34:06;3.00;;;2.80;;
1847;SDS011;924;52.448;13.356;2022-10-16T05:36:31;2.83;;;2.63;;
1847;SDS011;924;52.448;13.356;2022-10-16T05:38:56;4.03;;;2.73;;
1847;SDS011;924;52.448;13.356;2022-10-16T05:41:21;3.30;;;3.00;;
1847;SDS011;924;52.448;13.356;2022-10-16T05:43:48;3.40;;;3.10;;
1847;SDS011;924;52.448;13.356;2022-10-16T05:46:14;3.97;;;2.80;;
1847;SDS011;924;52.448;13.356;2022-10-16T05:48:39;5.40;;;3.00;;
1847;SDS011;924;52.448;13.356;2022-10-16T05:51:09;3.53;;;2.80;;
1847;SDS011;924;52.448;13.356;2022-10-16T05:53:35;2.80;;;2.60;;
1847;SDS011;924;52.448;13.356;2022-10-16T05:56:00;2.70;;;2.50;;
1847;SDS011;924;52.448;13.356;2022-10-16T05:58:28;2.93;;;2.63;;
1847;SDS011;924;52.448;13.356;2022-10-16T06:01:00;5.77;;;3.30;;
1847;SDS011;924;52.448;13.356;2022-10-16T06:03:26;4.07;;;2.97;;
1847;SDS011;924;52.448;13.356;2022-10-16T06:05:51;3.53;;;3.10;;
1847;SDS011;924;52.448;13.356;2022-10-16T06:08:17;3.03;;;2.80;;
1847;SDS011;924;52.448;13.356;2022-10-16T06:10:42;3.67;;;3.30;;
1847;SDS011;924;52.448;13.356;2022-10-16T06:13:08;3.03;;;2.73;;
1847;SDS011;924;52.448;13.356;2022-10-16T06:15:33;4.00;;;2.90;;
1847;SDS011;924;52.448;13.356;2022-10-16T06:17:59;2.70;;;2.50;;
1847;SDS011;924;52.448;13.356;2022-10-16T06:20:24;3.00;;;2.80;;
1847;SDS011;924;52.448;13.356;2022-10-16T06:22:49;3.27;;;2.67;;
1847;SDS011;924;52.448;13.356;2022-10-16T06:25:14;2.57;;;2.37;;
1847;SDS011;924;52.448;13.356;2022-10-16T06:27:40;2.53;;;2.33;;
1847;SDS011;924;52.448;13.356;2022-10-16T06:30:06;2.73;;;2.50;;
1847;SDS011;924;52.448;13.356;2022-10-16T06:32:31;3.17;;;2.87;;
1847;SDS011;924;52.448;13.356;2022-10-16T06:34:56;2.50;;;2.30;;
1847;SDS011;924;52.448;13.356;2022-10-16T06:37:21;2.20;;;2.10;;
1847;SDS011;924;52.448;13.356;2022-10-16T06:39:47;2.43;;;2.33;;
1847;SDS011;924;52.448;13.356;2022-10-16T06:42:12;3.47;;;2.00;;
1847;SDS011;924;52.448;13.356;2022-10-16T06:44:37;2.77;;;2.20;;
1847;SDS011;924;52.448;13.356;2022-10-16T06:47:02;3.30;;;3.00;;
1847;SDS011;924;52.448;13.356;2022-10-16T06:49:28;3.43;;;2.20;;
1847;SDS011;924;52.448;13.356;2022-10-16T06:51:53;2.27;;;2.07;;
1847;SDS011;924;52.448;13.356;2022-10-16T06:54:18;2.53;;;2.33;;
1847;SDS011;924;52.448;13.356;2022-10-16T06:56:44;3.20;;;2.70;;
1847;SDS011;924;52.448;13.356;2022-10-16T06:59:09;2.63;;;2.30;;
1847;SDS011;924;52.448;13.356;2022-10-16T07:01:34;2.70;;;2.20;;
1847;SDS011;924;52.448;13.356;2022-10-16T07:04:00;3.10;;;2.20;;
1847;SDS011;924;52.448;13.356;2022-10-16T07:06:26;2.13;;;1.93;;
1847;SDS011;924;52.448;13.356;2022-10-16T07:08:51;4.80;;;2.20;;
1847;SDS011;924;52.448;13.356;2022-10-16T07:11:21;2.50;;;2.00;;
1847;SDS011;924;52.448;13.356;2022-10-16T07:13:47;2.80;;;2.60;;
1847;SDS011;924;52.448;13.356;2022-10-16T07:16:17;2.30;;;2.07;;
1847;SDS011;924;52.448;13.356;2022-10-16T07:18:43;2.63;;;2.07;;
1847;SDS011;924;52.448;13.356;2022-10-16T07:21:11;3.30;;;2.47;;
1847;SDS011;924;52.448;13.356;2022-10-16T07:23:37;2.30;;;2.20;;
1847;SDS011;924;52.448;13.356;2022-10-16T07:26:02;2.60;;;2.40;;
1847;SDS011;924;52.448;13.356;2022-10-16T07:28:28;2.70;;;2.27;;
1847;SDS011;924;52.448;13.356;2022-10-16T07:30:53;2.40;;;2.10;;
1847;SDS011;924;52.448;13.356;2022-10-16T07:33:18;2.47;;;2.27;;
1847;SDS011;924;52.448;13.356;2022-10-16T07:35:50;5.93;;;3.97;;
1847;SDS011;924;52.448;13.356;2022-10-16T07:38:16;4.60;;;3.27;;
1847;SDS011;924;52.448;13.356;2022-10-16T07:40:41;3.70;;;3.00;;
1847;SDS011;924;52.448;13.356;2022-10-16T07:43:06;2.80;;;2.60;;
1847;SDS011;924;52.448;13.356;2022-10-16T07:45:32;4.90;;;2.23;;
1847;SDS011;924;52.448;13.356;2022-10-16T07:47:57;2.60;;;2.40;;
1847;SDS011;924;52.448;13.356;2022-10-16T07:50:22;2.43;;;2.23;;
1847;SDS011;924;52.448;13.356;2022-10-16T07:52:47;2.03;;;1.93;;
1847;SDS011;924;52.448;13.356;2022-10-16T07:55:12;4.23;;;2.60;;
1847;SDS011;924;52.448;13.356;2022-10-16T07:57:38;2.90;;;2.70;;
1847;SDS011;924;52.448;13.356;2022-10-16T08:00:03;1.90;;;1.80;;
1847;SDS011;924;52.448;13.356;2022-10-16T08:02:28;2.73;;;1.93;;
1847;SDS011;924;52.448;13.356;2022-10-16T08:04:54;2.00;;;1.90;;
1847;SDS011;924;52.448;13.356;2022-10-16T08:07:19;2.83;;;2.23;;
1847;SDS011;924;52.448;13.356;2022-10-16T08:09:44;2.90;;;2.13;;
1847;SDS011;924;52.448;13.356;2022-10-16T08:12:09;2.10;;;2.00;;
1847;SDS011;924;52.448;13.356;2022-10-16T08:14:35;4.47;;;2.20;;
1847;SDS011;924;52.448;13.356;2022-10-16T08:17:01;2.33;;;2.10;;
1847;SDS011;924;52.448;13.356;2022-10-16T08:19:27;4.53;;;2.10;;
1847;SDS011;924;52.448;13.356;2022-10-16T08:21:52;2.37;;;2.20;;
1847;SDS011;924;52.448;13.356;2022-10-16T08:24:17;2.77;;;2.57;;
1847;SDS011;924;52.448;13.356;2022-10-16T08:26:42;3.23;;;1.83;;
1847;SDS011;924;52.448;13.356;2022-10-16T08:29:07;3.40;;;1.90;;
1847;SDS011;924;52.448;13.356;2022-10-16T08:31:33;2.47;;;2.27;;
1847;SDS011;924;52.448;13.356;2022-10-16T08:33:58;2.63;;;2.10;;
1847;SDS011;924;52.448;13.356;2022-10-16T08:36:23;2.20;;;2.00;;
1847;SDS011;924;52.448;13.356;2022-10-16T08:38:49;1.60;;;1.50;;
1847;SDS011;924;52.448;13.356;2022-10-16T08:41:28;2.40;;;2.10;;
1847;SDS011;924;52.448;13.356;2022-10-16T08:49:32;1.60;;;1.50;;
1847;SDS011;924;52.448;13.356;2022-10-16T08:51:58;1.83;;;1.20;;
1847;SDS011;924;52.448;13.356;2022-10-16T08:54:32;2.23;;;1.93;;
1847;SDS011;924;52.448;13.356;2022-10-16T08:57:12;1.97;;;1.83;;
1847;SDS011;924;52.448;13.356;2022-10-16T08:59:38;2.20;;;2.00;;
1847;SDS011;924;52.448;13.356;2022-10-16T09:02:08;3.00;;;2.07;;
1847;SDS011;924;52.448;13.356;2022-10-16T09:07:22;2.30;;;2.10;;
1847;SDS011;924;52.448;13.356;2022-10-16T09:12:21;1.50;;;1.40;;
1847;SDS011;924;52.448;13.356;2022-10-16T09:17:22;2.00;;;1.80;;
1847;SDS011;924;52.448;13.356;2022-10-16T09:19:51;1.70;;;1.60;;
1847;SDS011;924;52.448;13.356;2022-10-16T09:22:19;3.93;;;1.90;;
1847;SDS011;924;52.448;13.356;2022-10-16T09:24:46;1.60;;;1.43;;
1847;SDS011;924;52.448;13.356;2022-10-16T09:27:12;1.80;;;1.70;;
1847;SDS011;924;52.448;13.356;2022-10-16T09:29:39;2.03;;;1.50;;
1847;SDS011;924;52.448;13.356;2022-10-16T09:32:10;1.50;;;1.37;;
1847;SDS011;924;52.448;13.356;2022-10-16T09:34:36;1.40;;;1.30;;
1847;SDS011;924;52.448;13.356;2022-10-16T09:37:05;2.63;;;2.17;;
1847;SDS011;924;52.448;13.356;2022-10-16T09:39:43;2.17;;;1.73;;
1847;SDS011;924;52.448;13.356;2022-10-16T09:42:10;5.13;;;1.80;;
1847;SDS011;924;52.448;13.356;2022-10-16T09:44:35;3.00;;;1.83;;
1847;SDS011;924;52.448;13.356;2022-10-16T09:47:22;1.87;;;1.77;;
1847;SDS011;924;52.448;13.356;2022-10-16T09:49:53;1.90;;;1.77;;
1847;SDS011;924;52.448;13.356;2022-10-16T09:52:19;1.87;;;1.77;;
1847;SDS011;924;52.448;13.356;2022-10-16T09:57:19;2.90;;;1.70;;
1847;SDS011;924;52.448;13.356;2022-10-16T09:59:48;2.47;;;1.83;;
1847;SDS011;924;52.448;13.356;2022-10-16T10:02:14;1.77;;;1.67;;
1847;SDS011;924;52.448;13.356;2022-10-16T10:04:41;2.43;;;1.90;;
1847;SDS011;924;52.448;13.356;2022-10-16T10:07:06;1.80;;;1.70;;
1847;SDS011;924;52.448;13.356;2022-10-16T10:09:42;1.77;;;1.67;;
1847;SDS011;924;52.448;13.356;2022-10-16T10:12:25;2.50;;;1.83;;
1847;SDS011;924;52.448;13.356;2022-10-16T10:15:12;2.73;;;1.53;;
1847;SDS011;924;52.448;13.356;2022-10-16T10:17:44;33.20;;;12.40;;
1847;SDS011;924;52.448;13.356;2022-10-16T10:20:18;2.13;;;1.93;;
1847;SDS011;924;52.448;13.356;2022-10-16T10:22:46;1.90;;;1.80;;
1847;SDS011;924;52.448;13.356;2022-10-16T10:30:18;2.00;;;1.70;;
1847;SDS011;924;52.448;13.356;2022-10-16T10:35:31;4.73;;;1.70;;
1847;SDS011;924;52.448;13.356;2022-10-16T10:43:04;2.20;;;1.63;;
1847;SDS011;924;52.448;13.356;2022-10-16T10:53:04;2.03;;;1.33;;
1847;SDS011;924;52.448;13.356;2022-10-16T11:01:00;3.03;;;1.50;;
1847;SDS011;924;52.448;13.356;2022-10-16T11:05:59;3.10;;;1.97;;
1847;SDS011;924;52.448;13.356;2022-10-16T11:11:32;3.30;;;1.47;;
1847;SDS011;924;52.448;13.356;2022-10-16T11:16:17;2.10;;;1.20;;
1847;SDS011;924;52.448;13.356;2022-10-16T11:21:14;1.40;;;1.00;;
1847;SDS011;924;52.448;13.356;2022-10-16T11:26:23;1.93;;;1.50;;
1847;SDS011;924;52.448;13.356;2022-10-16T11:28:56;2.20;;;1.30;;
1847;SDS011;924;52.448;13.356;2022-10-16T11:31:43;5.80;;;1.33;;
1847;SDS011;924;52.448;13.356;2022-10-16T11:36:37;2.07;;;1.10;;
1847;SDS011;924;52.448;13.356;2022-10-16T11:46:32;1.20;;;1.10;;
1847;SDS011;924;52.448;13.356;2022-10-16T11:49:41;1.20;;;0.97;;
1847;SDS011;924;52.448;13.356;2022-10-16T11:54:45;1.60;;;1.27;;
1847;SDS011;924;52.448;13.356;2022-10-16T11:57:17;4.57;;;1.70;;
1847;SDS011;924;52.448;13.356;2022-10-16T12:00:02;1.43;;;1.33;;
1847;SDS011;924;52.448;13.356;2022-10-16T12:03:31;1.57;;;1.07;;
1847;SDS011;924;52.448;13.356;2022-10-16T12:10:28;1.10;;;0.90;;
1847;SDS011;924;52.448;13.356;2022-10-16T12:12:56;1.57;;;0.90;;
1847;SDS011;924;52.448;13.356;2022-10-16T12:17:47;1.13;;;1.00;;
1847;SDS011;924;52.448;13.356;2022-10-16T12:22:47;1.93;;;1.27;;
1847;SDS011;924;52.448;13.356;2022-10-16T12:30:26;3.10;;;2.90;;
1847;SDS011;924;52.448;13.356;2022-10-16T12:33:02;1.50;;;1.13;;
1847;SDS011;924;52.448;13.356;2022-10-16T12:35:32;1.13;;;1.00;;
1847;SDS011;924;52.448;13.356;2022-10-16T12:38:05;1.30;;;1.20;;
1847;SDS011;924;52.448;13.356;2022-10-16T12:40:32;1.93;;;1.40;;
1847;SDS011;924;52.448;13.356;2022-10-16T12:42:58;0.97;;;0.83;;
1847;SDS011;924;52.448;13.356;2022-10-16T12:47:49;4.60;;;1.83;;
1847;SDS011;924;52.448;13.356;2022-10-16T12:52:49;1.20;;;1.10;;
1847;SDS011;924;52.448;13.356;2022-10-16T12:55:16;1.20;;;0.90;;
1847;SDS011;924;52.448;13.356;2022-10-16T12:57:54;3.53;;;1.17;;
1847;SDS011;924;52.448;13.356;2022-10-16T13:10:26;2.70;;;1.30;;
1847;SDS011;924;52.448;13.356;2022-10-16T13:12:57;1.47;;;1.00;;
1847;SDS011;924;52.448;13.356;2022-10-16T13:15:39;1.70;;;1.03;;
1847;SDS011;924;52.448;13.356;2022-10-16T13:23:23;3.57;;;1.20;;
1847;SDS011;924;52.448;13.356;2022-10-16T13:26:05;4.00;;;1.10;;
1847;SDS011;924;52.448;13.356;2022-10-16T13:28:34;1.17;;;1.00;;
1847;SDS011;924;52.448;13.356;2022-10-16T13:31:00;1.80;;;0.97;;
1847;SDS011;924;52.448;13.356;2022-10-16T13:33:36;0.97;;;0.87;;
1847;SDS011;924;52.448;13.356;2022-10-16T13:36:03;1.83;;;1.10;;
1847;SDS011;924;52.448;13.356;2022-10-16T13:38:32;1.83;;;1.13;;
1847;SDS011;924;52.448;13.356;2022-10-16T13:43:32;1.40;;;1.30;;
1847;SDS011;924;52.448;13.356;2022-10-16T13:45:59;1.30;;;1.10;;
1847;SDS011;924;52.448;13.356;2022-10-16T13:48:25;2.70;;;1.20;;
1847;SDS011;924;52.448;13.356;2022-10-16T13:51:00;2.30;;;1.20;;
1847;SDS011;924;52.448;13.356;2022-10-16T13:53:26;2.70;;;1.40;;
1847;SDS011;924;52.448;13.356;2022-10-16T13:55:51;1.20;;;1.10;;
1847;SDS011;924;52.448;13.356;2022-10-16T13:58:16;1.63;;;1.40;;
1847;SDS011;924;52.448;13.356;2022-10-16T14:00:52;2.50;;;1.27;;
1847;SDS011;924;52.448;13.356;2022-10-16T14:03:18;1.10;;;0.90;;
1847;SDS011;924;52.448;13.356;2022-10-16T14:05:49;1.40;;;1.30;;
1847;SDS011;924;52.448;13.356;2022-10-16T14:08:14;2.17;;;1.27;;
1847;SDS011;924;52.448;13.356;2022-10-16T14:10:40;1.80;;;1.33;;
1847;SDS011;924;52.448;13.356;2022-10-16T14:13:05;2.30;;;1.50;;
1847;SDS011;924;52.448;13.356;2022-10-16T14:15:32;1.70;;;1.30;;
1847;SDS011;924;52.448;13.356;2022-10-16T14:17:58;1.50;;;1.40;;
1847;SDS011;924;52.448;13.356;2022-10-16T14:20:27;1.30;;;1.20;;
1847;SDS011;924;52.448;13.356;2022-10-16T14:23:03;1.33;;;1.10;;
1847;SDS011;924;52.448;13.356;2022-10-16T14:25:29;3.00;;;1.27;;
1847;SDS011;924;52.448;13.356;2022-10-16T14:30:27;1.33;;;1.10;;
1847;SDS011;924;52.448;13.356;2022-10-16T14:32:57;1.70;;;1.10;;
1847;SDS011;924;52.448;13.356;2022-10-16T14:35:23;2.60;;;1.30;;
1847;SDS011;924;52.448;13.356;2022-10-16T14:37:52;2.20;;;1.13;;
1847;SDS011;924;52.448;13.356;2022-10-16T14:40:18;1.10;;;1.00;;
1847;SDS011;924;52.448;13.356;2022-10-16T14:42:43;1.47;;;1.37;;
1847;SDS011;924;52.448;13.356;2022-10-16T14:45:09;2.10;;;1.23;;
1847;SDS011;924;52.448;13.356;2022-10-16T14:47:35;1.83;;;1.30;;
1847;SDS011;924;52.448;13.356;2022-10-16T14:50:02;2.17;;;1.10;;
1847;SDS011;924;52.448;13.356;2022-10-16T14:52:27;1.20;;;1.10;;
1847;SDS011;924;52.448;13.356;2022-10-16T14:54:52;2.33;;;1.10;;
1847;SDS011;924;52.448;13.356;2022-10-16T14:57:22;1.33;;;1.00;;
1847;SDS011;924;52.448;13.356;2022-10-16T14:59:48;1.10;;;1.00;;
1847;SDS011;924;52.448;13.356;2022-10-16T15:02:32;1.53;;;1.10;;
1847;SDS011;924;52.448;13.356;2022-10-16T15:05:07;1.40;;;0.93;;
1847;SDS011;924;52.448;13.356;2022-10-16T15:07:35;1.87;;;1.13;;
1847;SDS011;924;52.448;13.356;2022-10-16T15:10:00;1.20;;;0.97;;
1847;SDS011;924;52.448;13.356;2022-10-16T15:12:25;3.13;;;1.60;;
1847;SDS011;924;52.448;13.356;2022-10-16T15:14:51;2.00;;;1.30;;
1847;SDS011;924;52.448;13.356;2022-10-16T15:17:16;1.23;;;1.07;;
1847;SDS011;924;52.448;13.356;2022-10-16T15:19:41;1.10;;;1.00;;
1847;SDS011;924;52.448;13.356;2022-10-16T15:22:08;1.40;;;1.03;;
1847;SDS011;924;52.448;13.356;2022-10-16T15:24:33;1.40;;;1.20;;
1847;SDS011;924;52.448;13.356;2022-10-16T15:26:58;1.77;;;1.03;;
1847;SDS011;924;52.448;13.356;2022-10-16T15:29:24;1.30;;;1.20;;
1847;SDS011;924;52.448;13.356;2022-10-16T15:31:49;1.60;;;1.07;;
1847;SDS011;924;52.448;13.356;2022-10-16T15:34:15;1.77;;;1.40;;
1847;SDS011;924;52.448;13.356;2022-10-16T15:36:41;1.53;;;1.00;;
1847;SDS011;924;52.448;13.356;2022-10-16T15:39:13;1.60;;;1.50;;
1847;SDS011;924;52.448;13.356;2022-10-16T15:41:38;2.03;;;1.27;;
1847;SDS011;924;52.448;13.356;2022-10-16T15:44:03;3.23;;;1.50;;
1847;SDS011;924;52.448;13.356;2022-10-16T15:46:29;3.57;;;1.40;;
1847;SDS011;924;52.448;13.356;2022-10-16T15:48:56;1.63;;;1.30;;
1847;SDS011;924;52.448;13.356;2022-10-16T15:51:22;1.77;;;1.60;;
1847;SDS011;924;52.448;13.356;2022-10-16T15:53:47;1.83;;;1.27;;
1847;SDS011;924;52.448;13.356;2022-10-16T15:56:13;2.70;;;1.60;;
1847;SDS011;924;52.448;13.356;2022-10-16T15:58:38;2.07;;;1.57;;
1847;SDS011;924;52.448;13.356;2022-10-16T16:01:04;1.63;;;1.53;;
1847;SDS011;924;52.448;13.356;2022-10-16T16:03:29;2.77;;;1.70;;
1847;SDS011;924;52.448;13.356;2022-10-16T16:05:55;2.03;;;1.70;;
1847;SDS011;924;52.448;13.356;2022-10-16T16:08:20;1.93;;;1.80;;
1847;SDS011;924;52.448;13.356;2022-10-16T16:10:52;2.70;;;2.13;;
1847;SDS011;924;52.448;13.356;2022-10-16T16:13:21;2.70;;;1.93;;
1847;SDS011;924;52.448;13.356;2022-10-16T16:15:46;3.60;;;2.50;;
1847;SDS011;924;52.448;13.356;2022-10-16T16:18:11;3.20;;;2.17;;
1847;SDS011;924;52.448;13.356;2022-10-16T16:20:37;2.73;;;2.40;;
1847;SDS011;924;52.448;13.356;2022-10-16T16:23:02;1.70;;;1.60;;
1847;SDS011;924;52.448;13.356;2022-10-16T16:25:27;3.20;;;2.77;;
1847;SDS011;924;52.448;13.356;2022-10-16T16:27:52;3.20;;;2.30;;
1847;SDS011;924;52.448;13.356;2022-10-16T16:30:18;3.07;;;2.77;;
1847;SDS011;924;52.448;13.356;2022-10-16T16:32:45;4.73;;;2.87;;
1847;SDS011;924;52.448;13.356;2022-10-16T16:35:10;8.00;;;3.17;;
1847;SDS011;924;52.448;13.356;2022-10-16T16:37:35;3.23;;;2.93;;
1847;SDS011;924;52.448;13.356;2022-10-16T16:40:01;2.90;;;2.60;;
1847;SDS011;924;52.448;13.356;2022-10-16T16:42:27;3.43;;;2.43;;
1847;SDS011;924;52.448;13.356;2022-10-16T16:44:52;3.83;;;2.37;;
1847;SDS011;924;52.448;13.356;2022-10-16T16:47:18;3.13;;;2.47;;
1847;SDS011;924;52.448;13.356;2022-10-16T16:49:43;3.23;;;2.93;;
1847;SDS011;924;52.448;13.356;2022-10-16T16:52:08;6.87;;;3.57;;
1847;SDS011;924;52.448;13.356;2022-10-16T16:54:33;2.97;;;2.70;;
1847;SDS011;924;52.448;13.356;2022-10-16T16:56:58;4.20;;;3.20;;
1847;SDS011;924;52.448;13.356;2022-10-16T16:59:24;6.00;;;3.73;;
1847;SDS011;924;52.448;13.356;2022-10-16T17:01:49;4.43;;;3.17;;
1847;SDS011;924;52.448;13.356;2022-10-16T17:04:14;4.83;;;3.60;;
1847;SDS011;924;52.448;13.356;2022-10-16T17:06:43;5.30;;;4.80;;
1847;SDS011;924;52.448;13.356;2022-10-16T17:09:09;7.30;;;5.77;;
1847;SDS011;924;52.448;13.356;2022-10-16T17:11:34;6.87;;;5.63;;
1847;SDS011;924;52.448;13.356;2022-10-16T17:14:00;6.57;;;5.97;;
1847;SDS011;924;52.448;13.356;2022-10-16T17:16:30;7.20;;;6.50;;
1847;SDS011;924;52.448;13.356;2022-10-16T17:18:58;9.67;;;8.70;;
1847;SDS011;924;52.448;13.356;2022-10-16T17:21:23;10.40;;;9.40;;